METAR Data
IDs: Format: Raw Decoded Include TAF

Data at: 1523 UTC 21 Sep 2018

KHBI 200800Z AUTO 00000KT 10SM CLR 19/19 A3008 RMK AO2 T01940193
KHBI 200720Z AUTO 00000KT 7SM CLR 20/20 A3008 RMK AO2 T01960195
KHBI 200700Z AUTO 00000KT 10SM CLR 20/20 A3008 RMK AO2 T01970196
KHBI 200640Z AUTO 00000KT 10SM CLR 20/20 A3008 RMK AO2 T02000199
KHBI 200620Z AUTO 00000KT 10SM CLR 20/20 A3008 RMK AO2 T02000199
KHBI 200600Z AUTO 00000KT 10SM CLR 20/20 A3009 RMK AO2 T02000198
KHBI 200520Z AUTO 00000KT 10SM CLR 20/20 A3009 RMK AO2 T02030201
KHBI 200500Z AUTO 00000KT 10SM CLR 21/20 A3009 RMK AO2 T02050201
KHBI 200440Z AUTO 00000KT 10SM CLR 21/20 A3008 RMK AO2 T02060201
KHBI 200400Z AUTO 00000KT 10SM CLR 21/21 A3008 RMK AO2 T02100205
KHBI 200340Z AUTO 00000KT 10SM CLR 21/21 A3008 RMK AO2 T02100205